Terminal Aerodrome Forecast
Issued by NWS

Home | Current Version | Previous Version | Graphics & Text | Print | Product List | Glossary On
Versions: 1 2 3 4 5 6 7 8 9 10 11 12 13 14 15 16 17 18
000
FTUS43 KICT 271725
TAFSLN
TAF
KSLN 271725Z 2718/2818 13004KT P6SM SCT035 BKN120
     FM280100 13006KT P6SM SCT080 BKN120
     FM280400 02007KT P6SM VCTS SCT060 BKN120CB
     FM280900 08004KT P6SM BKN120
     FM281200 VRB03KT P6SM BKN250=

USA.gov is the U.S. government's official web portal to all federal, state and local government web resources and services.